Island Lake, Washington
Current Conditions -  °F | °C
As of 8:15 PM on Tuesday 21 Oct 2014 (Local Time) from KPWT Reporting Station
Overcast Overcast  
Wind Chill: 57°   Ceiling: 6000
Heat Index: 57°   Visibility: 10mi
Dew Point: 48°   Wind: 13mph
Humidity: 72%   Direction: 180°S
Pressure: 29.83"   Gusts: 17mph
Location:  47.7571°N, 122.623°W
Report Text: KPWT 220315Z AUTO 18011G15KT 10SM FEW042 OVC060 14/09 A2983 RMK AO1
Loading
Personal Weather Stations






























Interactive Weather Map
Tropical Storm Tracking
New forecast layout! Learn more

10-Day Weather Forecast

Advertisements
Track Severe Weather on mobile